sensor_id;sensor_type;location;lat;lon;timestamp;pressure;altitude;pressure_sealevel;temperature;humidity
7321;BME280;3701;49.346;8.798;2022-07-01T00:00:31;100397.41;;;16.18;100.00
7321;BME280;3701;49.346;8.798;2022-07-01T00:02:59;100375.41;;;15.98;100.00
7321;BME280;3701;49.346;8.798;2022-07-01T00:05:24;100371.72;;;16.11;100.00
7321;BME280;3701;49.346;8.798;2022-07-01T00:07:52;100369.75;;;16.03;100.00
7321;BME280;3701;49.346;8.798;2022-07-01T00:10:18;100355.19;;;15.99;100.00
7321;BME280;3701;49.346;8.798;2022-07-01T00:12:43;100365.88;;;15.97;100.00
7321;BME280;3701;49.346;8.798;2022-07-01T00:15:12;100375.69;;;15.95;100.00
7321;BME280;3701;49.346;8.798;2022-07-01T00:17:38;100375.09;;;15.92;100.00
7321;BME280;3701;49.346;8.798;2022-07-01T00:20:06;100400.84;;;15.78;100.00
7321;BME280;3701;49.346;8.798;2022-07-01T00:22:35;100387.59;;;15.89;100.00
7321;BME280;3701;49.346;8.798;2022-07-01T00:25:03;100384.41;;;15.75;100.00
7321;BME280;3701;49.346;8.798;2022-07-01T00:27:29;100392.22;;;15.76;100.00
7321;BME280;3701;49.346;8.798;2022-07-01T00:29:54;100404.06;;;15.82;100.00
7321;BME280;3701;49.346;8.798;2022-07-01T00:32:22;100404.31;;;15.79;100.00
7321;BME280;3701;49.346;8.798;2022-07-01T00:34:49;100392.22;;;15.76;100.00
7321;BME280;3701;49.346;8.798;2022-07-01T00:37:15;100398.81;;;15.70;100.00
7321;BME280;3701;49.346;8.798;2022-07-01T00:39:42;100425.94;;;15.82;100.00
7321;BME280;3701;49.346;8.798;2022-07-01T00:42:10;100438.19;;;15.93;100.00
7321;BME280;3701;49.346;8.798;2022-07-01T00:44:38;100437.88;;;15.65;100.00
7321;BME280;3701;49.346;8.798;2022-07-01T00:47:10;100443.84;;;15.46;100.00
7321;BME280;3701;49.346;8.798;2022-07-01T00:49:37;100474.97;;;15.62;100.00
7321;BME280;3701;49.346;8.798;2022-07-01T00:52:06;100468.34;;;15.68;100.00
7321;BME280;3701;49.346;8.798;2022-07-01T00:54:35;100484.56;;;15.63;100.00
7321;BME280;3701;49.346;8.798;2022-07-01T00:57:08;100471.72;;;15.70;100.00
7321;BME280;3701;49.346;8.798;2022-07-01T00:59:39;100480.63;;;15.58;100.00
7321;BME280;3701;49.346;8.798;2022-07-01T01:02:06;100464.06;;;15.67;100.00
7321;BME280;3701;49.346;8.798;2022-07-01T01:04:32;100488.34;;;15.70;100.00
7321;BME280;3701;49.346;8.798;2022-07-01T01:07:00;100486.53;;;15.71;100.00
7321;BME280;3701;49.346;8.798;2022-07-01T01:09:29;100470.50;;;15.53;100.00
7321;BME280;3701;49.346;8.798;2022-07-01T01:12:01;100470.09;;;15.58;100.00
7321;BME280;3701;49.346;8.798;2022-07-01T01:14:29;100481.59;;;15.57;100.00
7321;BME280;3701;49.346;8.798;2022-07-01T01:16:54;100484.84;;;15.49;100.00
7321;BME280;3701;49.346;8.798;2022-07-01T01:19:19;100472.53;;;15.49;100.00
7321;BME280;3701;49.346;8.798;2022-07-01T01:21:47;100489.06;;;15.40;100.00
7321;BME280;3701;49.346;8.798;2022-07-01T01:24:15;100492.25;;;15.55;100.00
7321;BME280;3701;49.346;8.798;2022-07-01T01:26:45;100511.84;;;15.62;100.00
7321;BME280;3701;49.346;8.798;2022-07-01T01:29:10;100529.25;;;15.53;100.00
7321;BME280;3701;49.346;8.798;2022-07-01T01:31:40;100515.72;;;15.47;100.00
7321;BME280;3701;49.346;8.798;2022-07-01T01:34:10;100502.00;;;15.43;100.00
7321;BME280;3701;49.346;8.798;2022-07-01T01:36:38;100501.91;;;15.33;100.00
7321;BME280;3701;49.346;8.798;2022-07-01T01:39:06;100502.16;;;15.30;100.00
7321;BME280;3701;49.346;8.798;2022-07-01T01:41:41;100502.16;;;15.30;100.00
7321;BME280;3701;49.346;8.798;2022-07-01T01:44:12;100501.06;;;15.33;100.00
7321;BME280;3701;49.346;8.798;2022-07-01T01:46:37;100502.75;;;15.34;100.00
7321;BME280;3701;49.346;8.798;2022-07-01T01:49:04;100485.28;;;15.33;100.00
7321;BME280;3701;49.346;8.798;2022-07-01T01:51:32;100495.94;;;15.31;100.00
7321;BME280;3701;49.346;8.798;2022-07-01T01:53:58;100491.94;;;15.37;100.00
7321;BME280;3701;49.346;8.798;2022-07-01T01:56:24;100493.81;;;15.25;100.00
7321;BME280;3701;49.346;8.798;2022-07-01T01:58:50;100504.66;;;15.32;100.00
7321;BME280;3701;49.346;8.798;2022-07-01T02:01:16;100507.44;;;15.30;100.00
7321;BME280;3701;49.346;8.798;2022-07-01T02:03:45;100507.00;;;15.14;100.00
7321;BME280;3701;49.346;8.798;2022-07-01T02:06:15;100513.06;;;15.14;100.00
7321;BME280;3701;49.346;8.798;2022-07-01T02:08:41;100517.84;;;15.21;100.00
7321;BME280;3701;49.346;8.798;2022-07-01T02:11:09;100523.47;;;15.16;100.00
7321;BME280;3701;49.346;8.798;2022-07-01T02:13:37;100538.66;;;15.24;100.00
7321;BME280;3701;49.346;8.798;2022-07-01T02:16:04;100543.81;;;15.14;100.00
7321;BME280;3701;49.346;8.798;2022-07-01T02:18:32;100540.72;;;15.09;100.00
7321;BME280;3701;49.346;8.798;2022-07-01T02:21:00;100535.19;;;15.23;100.00
7321;BME280;3701;49.346;8.798;2022-07-01T02:23:28;100536.78;;;15.03;100.00
7321;BME280;3701;49.346;8.798;2022-07-01T02:25:54;100533.66;;;15.09;100.00
7321;BME280;3701;49.346;8.798;2022-07-01T02:28:22;100529.72;;;15.04;100.00
7321;BME280;3701;49.346;8.798;2022-07-01T02:30:50;100524.84;;;14.88;100.00
7321;BME280;3701;49.346;8.798;2022-07-01T02:33:15;100522.69;;;14.82;100.00
7321;BME280;3701;49.346;8.798;2022-07-01T02:35:41;100525.91;;;14.96;100.00
7321;BME280;3701;49.346;8.798;2022-07-01T02:38:07;100513.59;;;14.97;100.00
7321;BME280;3701;49.346;8.798;2022-07-01T02:40:36;100532.59;;;15.01;100.00
7321;BME280;3701;49.346;8.798;2022-07-01T02:43:10;100559.72;;;15.01;100.00
7321;BME280;3701;49.346;8.798;2022-07-01T02:45:38;100554.13;;;15.06;100.00
7321;BME280;3701;49.346;8.798;2022-07-01T02:48:06;100534.53;;;14.99;100.00
7321;BME280;3701;49.346;8.798;2022-07-01T02:50:32;100512.41;;;14.90;100.00
7321;BME280;3701;49.346;8.798;2022-07-01T02:52:57;100524.13;;;14.97;100.00
7321;BME280;3701;49.346;8.798;2022-07-01T02:55:23;100515.41;;;14.96;100.00
7321;BME280;3701;49.346;8.798;2022-07-01T02:57:48;100514.19;;;15.01;100.00
7321;BME280;3701;49.346;8.798;2022-07-01T03:00:20;100506.31;;;14.89;100.00
7321;BME280;3701;49.346;8.798;2022-07-01T03:02:48;100537.63;;;14.92;100.00
7321;BME280;3701;49.346;8.798;2022-07-01T03:05:16;100532.00;;;14.97;100.00
7321;BME280;3701;49.346;8.798;2022-07-01T03:07:44;100554.00;;;15.07;100.00
7321;BME280;3701;49.346;8.798;2022-07-01T03:10:10;100548.72;;;15.07;100.00
7321;BME280;3701;49.346;8.798;2022-07-01T03:12:38;100527.56;;;14.98;100.00
7321;BME280;3701;49.346;8.798;2022-07-01T03:15:06;100532.00;;;14.86;100.00
7321;BME280;3701;49.346;8.798;2022-07-01T03:17:36;100551.13;;;14.99;100.00
7321;BME280;3701;49.346;8.798;2022-07-01T03:20:03;100549.13;;;14.80;100.00
7321;BME280;3701;49.346;8.798;2022-07-01T03:22:30;100556.66;;;14.73;100.00
7321;BME280;3701;49.346;8.798;2022-07-01T03:24:59;100568.00;;;14.85;100.00
7321;BME280;3701;49.346;8.798;2022-07-01T03:27:25;100541.47;;;14.88;100.00
7321;BME280;3701;49.346;8.798;2022-07-01T03:29:52;100566.81;;;14.78;100.00
7321;BME280;3701;49.346;8.798;2022-07-01T03:32:18;100564.53;;;14.85;100.00
7321;BME280;3701;49.346;8.798;2022-07-01T03:34:49;100578.38;;;14.75;100.00
7321;BME280;3701;49.346;8.798;2022-07-01T03:37:16;100556.78;;;14.83;100.00
7321;BME280;3701;49.346;8.798;2022-07-01T03:39:45;100554.00;;;14.73;100.00
7321;BME280;3701;49.346;8.798;2022-07-01T03:42:13;100548.28;;;14.80;100.00
7321;BME280;3701;49.346;8.798;2022-07-01T03:44:41;100540.03;;;14.73;100.00
7321;BME280;3701;49.346;8.798;2022-07-01T03:47:09;100552.59;;;14.69;100.00
7321;BME280;3701;49.346;8.798;2022-07-01T03:49:35;100559.16;;;14.86;100.00
7321;BME280;3701;49.346;8.798;2022-07-01T03:52:04;100544.22;;;14.64;100.00
7321;BME280;3701;49.346;8.798;2022-07-01T03:54:30;100546.63;;;14.67;100.00
7321;BME280;3701;49.346;8.798;2022-07-01T03:56:57;100558.09;;;14.77;100.00
7321;BME280;3701;49.346;8.798;2022-07-01T03:59:24;100571.47;;;14.74;100.00
7321;BME280;3701;49.346;8.798;2022-07-01T04:01:50;100577.91;;;14.70;100.00
7321;BME280;3701;49.346;8.798;2022-07-01T04:04:17;100593.34;;;14.86;100.00
7321;BME280;3701;49.346;8.798;2022-07-01T04:06:43;100594.53;;;14.71;100.00
7321;BME280;3701;49.346;8.798;2022-07-01T04:09:10;100594.81;;;14.55;100.00
7321;BME280;3701;49.346;8.798;2022-07-01T04:11:37;100591.91;;;14.71;100.00
7321;BME280;3701;49.346;8.798;2022-07-01T04:14:02;100604.09;;;14.72;100.00
7321;BME280;3701;49.346;8.798;2022-07-01T04:16:30;100585.19;;;14.55;100.00
7321;BME280;3701;49.346;8.798;2022-07-01T04:18:56;100600.03;;;14.68;100.00
7321;BME280;3701;49.346;8.798;2022-07-01T04:21:21;100590.25;;;14.81;100.00
7321;BME280;3701;49.346;8.798;2022-07-01T04:24:05;100637.69;;;14.91;100.00
7321;BME280;3701;49.346;8.798;2022-07-01T04:26:32;100630.63;;;14.80;100.00
7321;BME280;3701;49.346;8.798;2022-07-01T04:29:00;100635.31;;;14.88;100.00
7321;BME280;3701;49.346;8.798;2022-07-01T04:31:25;100649.97;;;14.79;100.00
7321;BME280;3701;49.346;8.798;2022-07-01T04:33:51;100668.06;;;14.95;100.00
7321;BME280;3701;49.346;8.798;2022-07-01T04:36:16;100668.78;;;14.97;100.00
7321;BME280;3701;49.346;8.798;2022-07-01T04:38:44;100676.94;;;15.05;100.00
7321;BME280;3701;49.346;8.798;2022-07-01T04:41:12;100676.44;;;15.11;100.00
7321;BME280;3701;49.346;8.798;2022-07-01T04:43:56;100681.69;;;15.11;100.00
7321;BME280;3701;49.346;8.798;2022-07-01T04:46:21;100679.19;;;15.10;100.00
7321;BME280;3701;49.346;8.798;2022-07-01T04:48:46;100661.72;;;14.86;100.00
7321;BME280;3701;49.346;8.798;2022-07-01T04:51:12;100654.31;;;15.03;100.00
7321;BME280;3701;49.346;8.798;2022-07-01T04:53:42;100666.28;;;15.18;100.00
7321;BME280;3701;49.346;8.798;2022-07-01T04:56:07;100661.28;;;15.15;100.00
7321;BME280;3701;49.346;8.798;2022-07-01T04:58:33;100669.28;;;15.36;100.00
7321;BME280;3701;49.346;8.798;2022-07-01T05:01:00;100674.88;;;15.31;99.74
7321;BME280;3701;49.346;8.798;2022-07-01T05:03:30;100687.09;;;15.32;99.63
7321;BME280;3701;49.346;8.798;2022-07-01T05:05:58;100683.28;;;15.25;98.80
7321;BME280;3701;49.346;8.798;2022-07-01T05:08:26;100670.47;;;15.21;98.84
7321;BME280;3701;49.346;8.798;2022-07-01T05:10:51;100690.56;;;15.33;99.22
7321;BME280;3701;49.346;8.798;2022-07-01T05:13:17;100689.72;;;15.32;99.86
7321;BME280;3701;49.346;8.798;2022-07-01T05:15:44;100696.66;;;15.33;100.00
7321;BME280;3701;49.346;8.798;2022-07-01T05:18:10;100697.72;;;15.42;100.00
7321;BME280;3701;49.346;8.798;2022-07-01T05:20:53;100711.03;;;15.41;100.00
7321;BME280;3701;49.346;8.798;2022-07-01T05:23:37;100710.78;;;15.44;100.00
7321;BME280;3701;49.346;8.798;2022-07-01T05:26:03;100705.53;;;15.32;100.00
7321;BME280;3701;49.346;8.798;2022-07-01T05:28:28;100707.31;;;15.43;100.00
7321;BME280;3701;49.346;8.798;2022-07-01T05:30:54;100701.91;;;15.33;100.00
7321;BME280;3701;49.346;8.798;2022-07-01T05:33:22;100704.19;;;15.38;100.00
7321;BME280;3701;49.346;8.798;2022-07-01T05:35:52;100701.81;;;15.24;100.00
7321;BME280;3701;49.346;8.798;2022-07-01T05:38:22;100700.13;;;15.11;100.00
7321;BME280;3701;49.346;8.798;2022-07-01T05:40:49;100691.63;;;15.08;100.00
7321;BME280;3701;49.346;8.798;2022-07-01T05:43:15;100689.69;;;14.87;100.00
7321;BME280;3701;49.346;8.798;2022-07-01T05:45:40;100694.38;;;15.06;100.00
7321;BME280;3701;49.346;8.798;2022-07-01T05:48:08;100693.50;;;14.94;100.00
7321;BME280;3701;49.346;8.798;2022-07-01T05:50:34;100703.84;;;15.09;100.00
7321;BME280;3701;49.346;8.798;2022-07-01T05:52:59;100703.38;;;15.15;100.00
7321;BME280;3701;49.346;8.798;2022-07-01T05:55:24;100703.97;;;15.19;100.00
7321;BME280;3701;49.346;8.798;2022-07-01T05:57:51;100718.91;;;15.18;100.00
7321;BME280;3701;49.346;8.798;2022-07-01T06:00:19;100706.94;;;15.03;100.00
7321;BME280;3701;49.346;8.798;2022-07-01T06:02:44;100711.84;;;15.07;100.00
7321;BME280;3701;49.346;8.798;2022-07-01T06:05:10;100721.28;;;15.10;100.00
7321;BME280;3701;49.346;8.798;2022-07-01T06:07:41;100720.69;;;15.06;100.00
7321;BME280;3701;49.346;8.798;2022-07-01T06:10:10;100718.78;;;15.08;100.00
7321;BME280;3701;49.346;8.798;2022-07-01T06:12:39;100718.66;;;14.99;100.00
7321;BME280;3701;49.346;8.798;2022-07-01T06:15:11;100702.16;;;14.96;100.00
7321;BME280;3701;49.346;8.798;2022-07-01T06:17:39;100708.13;;;14.99;100.00
7321;BME280;3701;49.346;8.798;2022-07-01T06:20:08;100707.16;;;14.88;100.00
7321;BME280;3701;49.346;8.798;2022-07-01T06:22:33;100705.63;;;14.97;100.00
7321;BME280;3701;49.346;8.798;2022-07-01T06:25:04;100705.72;;;14.95;100.00
7321;BME280;3701;49.346;8.798;2022-07-01T06:27:29;100705.25;;;14.90;100.00
7321;BME280;3701;49.346;8.798;2022-07-01T06:29:59;100707.53;;;14.95;100.00
7321;BME280;3701;49.346;8.798;2022-07-01T06:32:24;100715.69;;;15.03;100.00
7321;BME280;3701;49.346;8.798;2022-07-01T06:34:52;100710.53;;;15.02;100.00
7321;BME280;3701;49.346;8.798;2022-07-01T06:37:18;100711.00;;;14.95;100.00
7321;BME280;3701;49.346;8.798;2022-07-01T06:39:45;100727.97;;;15.03;100.00
7321;BME280;3701;49.346;8.798;2022-07-01T06:42:10;100732.19;;;15.05;100.00
7321;BME280;3701;49.346;8.798;2022-07-01T06:44:38;100734.44;;;14.99;100.00
7321;BME280;3701;49.346;8.798;2022-07-01T06:47:03;100741.94;;;14.92;100.00
7321;BME280;3701;49.346;8.798;2022-07-01T06:49:31;100746.88;;;14.96;100.00
7321;BME280;3701;49.346;8.798;2022-07-01T06:51:56;100738.13;;;14.96;100.00
7321;BME280;3701;49.346;8.798;2022-07-01T06:54:22;100738.16;;;15.07;100.00
7321;BME280;3701;49.346;8.798;2022-07-01T06:56:52;100744.00;;;15.11;100.00
7321;BME280;3701;49.346;8.798;2022-07-01T06:59:18;100750.00;;;15.02;100.00
7321;BME280;3701;49.346;8.798;2022-07-01T07:01:43;100751.88;;;15.00;100.00
7321;BME280;3701;49.346;8.798;2022-07-01T07:04:08;100747.28;;;14.79;100.00
7321;BME280;3701;49.346;8.798;2022-07-01T07:06:34;100752.81;;;14.87;100.00
7321;BME280;3701;49.346;8.798;2022-07-01T07:09:01;100746.56;;;14.77;100.00
7321;BME280;3701;49.346;8.798;2022-07-01T07:11:31;100750.44;;;14.95;100.00
7321;BME280;3701;49.346;8.798;2022-07-01T07:13:56;100758.81;;;15.01;100.00
7321;BME280;3701;49.346;8.798;2022-07-01T07:16:24;100744.72;;;15.13;100.00
7321;BME280;3701;49.346;8.798;2022-07-01T07:18:52;100745.22;;;15.18;100.00
7321;BME280;3701;49.346;8.798;2022-07-01T07:21:18;100744.53;;;15.27;100.00
7321;BME280;3701;49.346;8.798;2022-07-01T07:23:46;100741.66;;;15.30;100.00
7321;BME280;3701;49.346;8.798;2022-07-01T07:26:12;100750.53;;;15.41;100.00
7321;BME280;3701;49.346;8.798;2022-07-01T07:28:37;100749.91;;;15.37;100.00
7321;BME280;3701;49.346;8.798;2022-07-01T07:31:03;100742.84;;;15.49;100.00
7321;BME280;3701;49.346;8.798;2022-07-01T07:33:28;100744.28;;;15.42;100.00
7321;BME280;3701;49.346;8.798;2022-07-01T07:35:56;100753.97;;;15.52;100.00
7321;BME280;3701;49.346;8.798;2022-07-01T07:38:21;100749.44;;;15.43;100.00
7321;BME280;3701;49.346;8.798;2022-07-01T07:40:46;100748.34;;;15.57;100.00
7321;BME280;3701;49.346;8.798;2022-07-01T07:43:12;100761.16;;;15.84;100.00
7321;BME280;3701;49.346;8.798;2022-07-01T07:45:40;100766.50;;;16.05;100.00
7321;BME280;3701;49.346;8.798;2022-07-01T07:48:05;100765.78;;;16.15;100.00
7321;BME280;3701;49.346;8.798;2022-07-01T07:50:33;100772.25;;;16.22;100.00
7321;BME280;3701;49.346;8.798;2022-07-01T07:52:59;100770.56;;;16.21;100.00
7321;BME280;3701;49.346;8.798;2022-07-01T07:55:27;100753.38;;;15.94;100.00
7321;BME280;3701;49.346;8.798;2022-07-01T07:57:53;100748.94;;;15.95;100.00
7321;BME280;3701;49.346;8.798;2022-07-01T08:00:21;100749.53;;;15.64;100.00
7321;BME280;3701;49.346;8.798;2022-07-01T08:02:49;100748.81;;;15.85;100.00
7321;BME280;3701;49.346;8.798;2022-07-01T08:05:14;100751.47;;;15.85;100.00
7321;BME280;3701;49.346;8.798;2022-07-01T08:07:41;100742.09;;;16.03;100.00
7321;BME280;3701;49.346;8.798;2022-07-01T08:10:11;100750.69;;;16.17;100.00
7321;BME280;3701;49.346;8.798;2022-07-01T08:12:40;100770.53;;;16.32;100.00
7321;BME280;3701;49.346;8.798;2022-07-01T08:15:07;100767.34;;;16.50;100.00
7321;BME280;3701;49.346;8.798;2022-07-01T08:17:35;100768.47;;;16.36;100.00
7321;BME280;3701;49.346;8.798;2022-07-01T08:20:01;100769.59;;;16.66;98.67
7321;BME280;3701;49.346;8.798;2022-07-01T08:22:26;100775.56;;;16.68;97.73
7321;BME280;3701;49.346;8.798;2022-07-01T08:24:52;100785.34;;;16.77;97.61
7321;BME280;3701;49.346;8.798;2022-07-01T08:27:17;100790.69;;;16.98;96.43
7321;BME280;3701;49.346;8.798;2022-07-01T08:29:42;100796.25;;;17.05;94.89
7321;BME280;3701;49.346;8.798;2022-07-01T08:32:08;100794.28;;;16.97;93.95
7321;BME280;3701;49.346;8.798;2022-07-01T08:34:34;100784.13;;;16.81;94.46
7321;BME280;3701;49.346;8.798;2022-07-01T08:37:01;100782.31;;;16.93;95.47
7321;BME280;3701;49.346;8.798;2022-07-01T08:39:27;100792.22;;;17.00;96.52
7321;BME280;3701;49.346;8.798;2022-07-01T08:41:52;100802.81;;;16.89;94.93
7321;BME280;3701;49.346;8.798;2022-07-01T08:44:17;100798.97;;;16.61;95.85
7321;BME280;3701;49.346;8.798;2022-07-01T08:46:43;100806.50;;;16.66;94.44
7321;BME280;3701;49.346;8.798;2022-07-01T08:49:12;100806.63;;;16.64;95.64
7321;BME280;3701;49.346;8.798;2022-07-01T08:51:37;100818.47;;;16.70;96.78
7321;BME280;3701;49.346;8.798;2022-07-01T08:54:02;100829.66;;;16.62;95.26
7321;BME280;3701;49.346;8.798;2022-07-01T08:56:28;100830.38;;;16.53;96.41
7321;BME280;3701;49.346;8.798;2022-07-01T08:59:13;100834.63;;;16.44;96.47
7321;BME280;3701;49.346;8.798;2022-07-01T09:01:39;100830.41;;;16.41;96.74
7321;BME280;3701;49.346;8.798;2022-07-01T09:04:19;100818.38;;;16.05;98.32
7321;BME280;3701;49.346;8.798;2022-07-01T09:06:45;100820.44;;;16.13;99.70
7321;BME280;3701;49.346;8.798;2022-07-01T09:11:43;100841.38;;;16.03;100.00
7321;BME280;3701;49.346;8.798;2022-07-01T09:14:15;100835.28;;;16.02;100.00
7321;BME280;3701;49.346;8.798;2022-07-01T09:16:49;100837.06;;;16.13;100.00
7321;BME280;3701;49.346;8.798;2022-07-01T09:19:19;100843.91;;;16.04;100.00
7321;BME280;3701;49.346;8.798;2022-07-01T09:21:49;100833.31;;;16.27;100.00
7321;BME280;3701;49.346;8.798;2022-07-01T09:24:36;100827.41;;;16.46;99.96
7321;BME280;3701;49.346;8.798;2022-07-01T09:27:13;100840.16;;;16.73;99.35
7321;BME280;3701;49.346;8.798;2022-07-01T09:29:40;100844.53;;;16.95;97.37
7321;BME280;3701;49.346;8.798;2022-07-01T09:32:11;100839.53;;;17.13;95.89
7321;BME280;3701;49.346;8.798;2022-07-01T09:37:11;100858.38;;;17.72;96.64
7321;BME280;3701;49.346;8.798;2022-07-01T09:39:49;100856.88;;;18.10;94.06
7321;BME280;3701;49.346;8.798;2022-07-01T09:42:19;100852.53;;;18.59;89.61
7321;BME280;3701;49.346;8.798;2022-07-01T09:45:06;100858.28;;;19.03;90.35
7321;BME280;3701;49.346;8.798;2022-07-01T09:47:36;100836.41;;;18.92;86.29
7321;BME280;3701;49.346;8.798;2022-07-01T09:50:04;100836.13;;;18.85;87.15
7321;BME280;3701;49.346;8.798;2022-07-01T09:52:30;100849.38;;;18.85;87.04
7321;BME280;3701;49.346;8.798;2022-07-01T09:54:59;100848.38;;;18.96;87.51
7321;BME280;3701;49.346;8.798;2022-07-01T09:57:24;100849.25;;;18.96;85.78
7321;BME280;3701;49.346;8.798;2022-07-01T09:59:52;100835.97;;;18.77;84.36
7321;BME280;3701;49.346;8.798;2022-07-01T10:02:19;100846.13;;;18.72;83.42
7321;BME280;3701;49.346;8.798;2022-07-01T10:05:09;100849.88;;;18.59;84.41
7321;BME280;3701;49.346;8.798;2022-07-01T10:10:49;100840.78;;;18.23;86.00
7321;BME280;3701;49.346;8.798;2022-07-01T10:13:17;100845.44;;;18.00;85.72
7321;BME280;3701;49.346;8.798;2022-07-01T10:15:44;100844.59;;;17.99;84.91
7321;BME280;3701;49.346;8.798;2022-07-01T10:18:23;100850.00;;;18.38;84.80
7321;BME280;3701;49.346;8.798;2022-07-01T10:20:52;100864.00;;;18.19;86.47
7321;BME280;3701;49.346;8.798;2022-07-01T10:23:22;100856.38;;;18.36;84.83
7321;BME280;3701;49.346;8.798;2022-07-01T10:25:53;100855.16;;;18.49;85.78
7321;BME280;3701;49.346;8.798;2022-07-01T10:31:08;100875.47;;;18.39;83.49
7321;BME280;3701;49.346;8.798;2022-07-01T10:33:56;100873.25;;;18.35;83.06
7321;BME280;3701;49.346;8.798;2022-07-01T10:41:58;100892.13;;;19.29;80.90
7321;BME280;3701;49.346;8.798;2022-07-01T10:44:27;100899.59;;;19.63;80.28
7321;BME280;3701;49.346;8.798;2022-07-01T10:46:55;100881.06;;;19.63;75.91
7321;BME280;3701;49.346;8.798;2022-07-01T10:52:12;100877.69;;;20.08;76.59
7321;BME280;3701;49.346;8.798;2022-07-01T11:02:36;100863.34;;;20.57;70.22
7321;BME280;3701;49.346;8.798;2022-07-01T11:05:21;100864.94;;;20.85;70.35
7321;BME280;3701;49.346;8.798;2022-07-01T11:07:47;100871.41;;;20.83;65.65
7321;BME280;3701;49.346;8.798;2022-07-01T11:10:14;100882.56;;;21.04;68.37
7321;BME280;3701;49.346;8.798;2022-07-01T11:12:41;100879.72;;;21.24;69.15
7321;BME280;3701;49.346;8.798;2022-07-01T11:15:11;100871.53;;;20.99;67.44
7321;BME280;3701;49.346;8.798;2022-07-01T11:17:47;100867.53;;;21.13;66.00
7321;BME280;3701;49.346;8.798;2022-07-01T11:20:13;100877.28;;;21.30;67.04
7321;BME280;3701;49.346;8.798;2022-07-01T11:22:39;100870.00;;;21.51;64.88
7321;BME280;3701;49.346;8.798;2022-07-01T11:25:09;100857.59;;;21.15;65.11
7321;BME280;3701;49.346;8.798;2022-07-01T11:27:39;100849.53;;;21.07;64.88
7321;BME280;3701;49.346;8.798;2022-07-01T11:30:10;100870.00;;;21.33;64.91
7321;BME280;3701;49.346;8.798;2022-07-01T11:32:46;100870.69;;;21.87;64.00
7321;BME280;3701;49.346;8.798;2022-07-01T11:35:18;100865.91;;;22.33;61.50
7321;BME280;3701;49.346;8.798;2022-07-01T11:38:19;100867.63;;;22.59;57.08
7321;BME280;3701;49.346;8.798;2022-07-01T11:41:09;100891.56;;;22.51;60.64
7321;BME280;3701;49.346;8.798;2022-07-01T11:43:39;100865.84;;;22.25;60.15
7321;BME280;3701;49.346;8.798;2022-07-01T11:46:06;100860.25;;;22.36;60.74
7321;BME280;3701;49.346;8.798;2022-07-01T11:48:37;100858.31;;;22.79;59.82
7321;BME280;3701;49.346;8.798;2022-07-01T11:51:20;100873.53;;;23.12;59.68
7321;BME280;3701;49.346;8.798;2022-07-01T11:53:49;100870.84;;;23.28;55.19
7321;BME280;3701;49.346;8.798;2022-07-01T11:56:15;100863.81;;;22.78;56.08
7321;BME280;3701;49.346;8.798;2022-07-01T11:58:49;100847.66;;;22.55;55.91
7321;BME280;3701;49.346;8.798;2022-07-01T12:01:34;100847.63;;;22.47;59.66
7321;BME280;3701;49.346;8.798;2022-07-01T12:04:03;100848.31;;;22.06;60.76
7321;BME280;3701;49.346;8.798;2022-07-01T12:06:30;100855.66;;;22.55;59.99
7321;BME280;3701;49.346;8.798;2022-07-01T12:08:56;100854.50;;;22.82;58.90
7321;BME280;3701;49.346;8.798;2022-07-01T12:11:25;100870.16;;;23.34;57.26
7321;BME280;3701;49.346;8.798;2022-07-01T12:13:51;100856.81;;;23.51;55.37
7321;BME280;3701;49.346;8.798;2022-07-01T12:16:17;100852.78;;;23.55;52.65
7321;BME280;3701;49.346;8.798;2022-07-01T12:21:24;100847.53;;;21.79;57.14
7321;BME280;3701;49.346;8.798;2022-07-01T12:26:46;100840.66;;;22.54;55.40
7321;BME280;3701;49.346;8.798;2022-07-01T12:29:12;100821.13;;;21.25;57.16
7321;BME280;3701;49.346;8.798;2022-07-01T12:31:40;100827.00;;;21.37;55.79
7321;BME280;3701;49.346;8.798;2022-07-01T12:34:06;100825.03;;;21.13;62.89
7321;BME280;3701;49.346;8.798;2022-07-01T12:36:31;100845.41;;;21.91;62.45
7321;BME280;3701;49.346;8.798;2022-07-01T12:39:02;100830.69;;;22.05;59.61
7321;BME280;3701;49.346;8.798;2022-07-01T12:41:34;100847.66;;;22.63;59.07
7321;BME280;3701;49.346;8.798;2022-07-01T12:44:05;100846.06;;;23.11;53.82
7321;BME280;3701;49.346;8.798;2022-07-01T12:46:31;100834.69;;;23.01;52.15
7321;BME280;3701;49.346;8.798;2022-07-01T12:49:00;100835.34;;;22.95;56.09
7321;BME280;3701;49.346;8.798;2022-07-01T12:51:31;100837.50;;;22.75;58.82
7321;BME280;3701;49.346;8.798;2022-07-01T12:53:57;100830.34;;;22.51;57.76
7321;BME280;3701;49.346;8.798;2022-07-01T12:56:24;100832.03;;;22.60;55.58
7321;BME280;3701;49.346;8.798;2022-07-01T12:58:50;100823.88;;;22.62;54.01
7321;BME280;3701;49.346;8.798;2022-07-01T13:01:19;100808.63;;;21.70;56.39
7321;BME280;3701;49.346;8.798;2022-07-01T13:03:47;100819.16;;;22.39;58.11
7321;BME280;3701;49.346;8.798;2022-07-01T13:06:15;100811.97;;;22.23;57.11
7321;BME280;3701;49.346;8.798;2022-07-01T13:08:43;100818.03;;;22.66;56.68
7321;BME280;3701;49.346;8.798;2022-07-01T13:11:08;100818.38;;;22.96;56.46
7321;BME280;3701;49.346;8.798;2022-07-01T13:13:34;100820.41;;;23.10;54.66
7321;BME280;3701;49.346;8.798;2022-07-01T13:15:59;100813.72;;;23.23;53.63
7321;BME280;3701;49.346;8.798;2022-07-01T13:18:24;100792.28;;;23.08;49.71
7321;BME280;3701;49.346;8.798;2022-07-01T13:20:50;100818.06;;;22.91;51.74
7321;BME280;3701;49.346;8.798;2022-07-01T13:23:15;100804.28;;;23.60;51.09
7321;BME280;3701;49.346;8.798;2022-07-01T13:25:41;100804.72;;;23.32;53.72
7321;BME280;3701;49.346;8.798;2022-07-01T13:28:09;100803.94;;;23.71;51.94
7321;BME280;3701;49.346;8.798;2022-07-01T13:30:37;100805.88;;;23.77;51.08
7321;BME280;3701;49.346;8.798;2022-07-01T13:33:05;100798.75;;;23.13;50.06
7321;BME280;3701;49.346;8.798;2022-07-01T13:35:35;100442.28;;;22.30;49.13
7321;BME280;3701;49.346;8.798;2022-07-01T13:38:00;100558.44;;;23.18;51.09
7321;BME280;3701;49.346;8.798;2022-07-01T13:40:30;100583.56;;;23.15;52.72
7321;BME280;3701;49.346;8.798;2022-07-01T13:43:00;100595.25;;;23.46;52.11